Time;durP1;ratioP1;P1;durP2;ratioP2;P2;SDS_P1;SDS_P2;PMS_P1;PMS_P2;Temp;Humidity;BMP_temperature;BMP_pressure;BME280_temperature;BME280_humidity;BME280_pressure;Samples;Min_cycle;Max_cycle;Signal;HPM_P1;HPM_P2
2022/08/08 00:04:30;;;;;;;8.43;4.28;;;16.90;1.00;;;;;;10484666;28;20196;-79
2022/08/08 00:10:29;;;;;;;5.93;3.53;;;16.90;1.00;;;;;;10450637;28;20203;-79
2022/08/08 00:15:58;;;;;;;11.25;3.97;;;16.80;1.00;;;;;;10407045;28;20228;-80
2022/08/08 00:21:27;;;;;;;7.10;3.72;;;16.80;1.00;;;;;;10426034;28;20240;-80
2022/08/08 00:26:54;;;;;;;5.47;3.72;;;16.80;1.00;;;;;;10425861;28;20204;-79
2022/08/08 00:32:22;;;;;;;6.28;3.47;;;16.70;1.00;;;;;;10425568;28;21045;-81
2022/08/08 00:38:15;;;;;;;5.88;2.90;;;16.70;1.00;;;;;;10423880;28;20263;-81
2022/08/08 00:43:45;;;;;;;5.10;3.05;;;16.60;1.00;;;;;;10413988;28;20208;-82
2022/08/08 00:49:24;;;;;;;5.53;3.13;;;16.70;1.00;;;;;;10427796;28;20446;-81
2022/08/08 00:55:21;;;;;;;5.25;3.10;;;16.70;1.00;;;;;;10428773;28;20230;-80
2022/08/08 01:01:31;;;;;;;6.75;2.90;;;16.60;1.00;;;;;;10467928;28;20210;-80
2022/08/08 01:07:27;;;;;;;4.82;2.80;;;16.70;1.00;;;;;;10462861;28;20204;-81
2022/08/08 01:13:15;;;;;;;4.38;2.65;;;16.80;1.00;;;;;;10421288;28;20209;-81
2022/08/08 01:18:40;;;;;;;5.38;3.00;;;16.70;1.00;;;;;;10382692;28;20295;-81
2022/08/08 01:24:34;;;;;;;4.15;2.90;;;16.80;1.00;;;;;;10383006;28;20205;-80
2022/08/08 01:30:17;;;;;;;5.47;2.72;;;16.70;1.00;;;;;;10285848;28;20206;-82
2022/08/08 01:35:58;;;;;;;4.40;3.00;;;16.70;1.00;;;;;;10298898;28;20540;-82
2022/08/08 01:41:34;;;;;;;6.07;3.35;;;16.60;1.00;;;;;;10301427;28;20411;-82
2022/08/08 01:47:19;;;;;;;6.07;3.28;;;16.60;1.00;;;;;;10285302;28;20211;-82
2022/08/08 01:53:08;;;;;;;4.75;2.83;;;16.60;1.00;;;;;;10285006;28;20249;-81
2022/08/08 01:59:13;;;;;;;5.43;2.85;;;16.60;1.00;;;;;;10287126;28;20268;-82
2022/08/08 02:05:08;;;;;;;4.97;2.75;;;16.70;1.00;;;;;;10364487;28;20207;-82
2022/08/08 02:11:11;;;;;;;4.15;2.53;;;16.60;1.00;;;;;;10441429;28;20532;-82
2022/08/08 02:17:30;;;;;;;6.85;2.97;;;16.50;1.00;;;;;;10396030;28;20531;-81
2022/08/08 02:23:08;;;;;;;3.22;2.50;;;16.50;1.00;;;;;;10407712;28;20547;-80
2022/08/08 02:28:41;;;;;;;3.85;2.40;;;16.60;1.00;;;;;;10418118;28;20219;-80
2022/08/08 02:34:23;;;;;;;5.93;2.70;;;16.60;1.00;;;;;;10407133;28;20518;-81
2022/08/08 02:40:01;;;;;;;3.63;2.60;;;16.60;1.00;;;;;;10461691;28;20549;-79
2022/08/08 02:46:09;;;;;;;5.60;2.92;;;16.70;1.00;;;;;;10461679;28;20214;-79
2022/08/08 02:51:34;;;;;;;4.65;2.95;;;16.60;1.00;;;;;;10444257;28;20212;-80
2022/08/08 02:57:31;;;;;;;5.65;2.63;;;16.60;1.00;;;;;;10417107;28;20228;-80
2022/08/08 03:03:05;;;;;;;6.38;2.40;;;16.60;1.00;;;;;;10422383;28;20188;-78
2022/08/08 03:08:46;;;;;;;3.60;2.65;;;16.40;1.00;;;;;;10422905;28;20253;-80
2022/08/08 03:14:29;;;;;;;5.45;2.50;;;16.40;1.00;;;;;;10414726;28;20215;-80
2022/08/08 03:20:04;;;;;;;3.25;2.47;;;16.30;55.50;;;;;;10380036;28;20251;-80
2022/08/08 03:25:30;;;;;;;3.55;2.30;;;16.20;99.90;;;;;;10394831;28;20208;-81
2022/08/08 03:30:52;;;;;;;3.10;2.25;;;16.20;99.90;;;;;;10395833;28;20499;-81
2022/08/08 03:36:14;;;;;;;6.82;2.78;;;16.20;1.00;;;;;;10401891;28;20223;-80
2022/08/08 03:41:36;;;;;;;4.95;2.63;;;16.20;1.00;;;;;;10380323;28;20238;-79
2022/08/08 03:46:58;;;;;;;4.43;2.55;;;16.30;1.00;;;;;;10394517;28;20272;-80
2022/08/08 03:52:20;;;;;;;4.28;2.58;;;16.20;1.00;;;;;;10380261;28;20204;-79
2022/08/08 03:57:47;;;;;;;4.65;3.20;;;16.30;1.00;;;;;;10431605;28;20230;-79
2022/08/08 04:03:09;;;;;;;4.18;2.95;;;16.30;1.00;;;;;;10448113;28;20192;-80
2022/08/08 04:08:36;;;;;;;6.38;2.97;;;16.30;1.00;;;;;;10475831;28;20417;-79
2022/08/08 04:14:06;;;;;;;4.55;2.60;;;16.40;1.00;;;;;;10413531;28;20296;-80
2022/08/08 04:19:30;;;;;;;3.03;2.28;;;16.40;1.00;;;;;;10379629;28;20242;-80
2022/08/08 04:24:54;;;;;;;4.35;2.60;;;16.50;1.00;;;;;;10393383;28;20268;-81
2022/08/08 04:30:16;;;;;;;4.15;2.90;;;16.50;1.00;;;;;;10394030;28;20204;-79
2022/08/08 04:35:40;;;;;;;12.88;5.32;;;16.60;1.00;;;;;;10403402;28;20292;-79
2022/08/08 04:41:03;;;;;;;38.20;12.73;;;16.80;1.00;;;;;;10386807;28;20251;-81
2022/08/08 04:46:24;;;;;;;47.55;13.90;;;17.00;1.00;;;;;;10386817;28;20259;-81
2022/08/08 04:51:47;;;;;;;37.83;11.13;;;17.00;1.00;;;;;;10386463;28;20198;-79
2022/08/08 04:57:10;;;;;;;14.25;6.40;;;17.20;1.00;;;;;;10428204;28;20246;-80
2022/08/08 05:02:31;;;;;;;8.70;4.32;;;17.30;99.90;;;;;;10484733;28;20192;-79
2022/08/08 05:07:53;;;;;;;5.00;3.08;;;17.40;99.90;;;;;;10481843;28;20219;-79
2022/08/08 05:13:15;;;;;;;6.40;2.78;;;17.60;99.90;;;;;;10426915;28;20201;-79
2022/08/08 05:18:37;;;;;;;7.72;2.45;;;17.80;99.90;;;;;;10398970;28;20245;-80
2022/08/08 05:23:58;;;;;;;3.75;2.25;;;17.90;1.00;;;;;;10398817;28;20193;-79
2022/08/08 05:29:20;;;;;;;5.55;2.45;;;18.10;1.00;;;;;;10399147;28;20515;-83
2022/08/08 05:34:48;;;;;;;3.88;2.08;;;18.20;1.00;;;;;;10422875;28;20487;-83
2022/08/08 05:40:13;;;;;;;5.68;2.22;;;18.30;99.90;;;;;;10425502;28;20526;-83
2022/08/08 05:45:36;;;;;;;2.78;2.08;;;18.50;99.90;;;;;;10411050;28;20224;-81
2022/08/08 05:50:59;;;;;;;4.78;1.92;;;18.70;99.90;;;;;;10424963;28;20403;-82
2022/08/08 05:56:22;;;;;;;3.40;1.67;;;18.90;65.60;;;;;;10439226;28;20385;-82
2022/08/08 06:01:50;;;;;;;2.30;1.50;;;19.00;1.00;;;;;;10480062;28;20499;-82
2022/08/08 06:07:12;;;;;;;2.58;1.70;;;19.20;1.00;;;;;;10465494;28;20210;-85
2022/08/08 06:12:35;;;;;;;2.38;1.80;;;19.30;99.90;;;;;;10450343;28;20205;-80
2022/08/08 06:17:59;;;;;;;3.15;1.83;;;19.40;1.00;;;;;;10396563;28;20233;-81
2022/08/08 06:23:21;;;;;;;2.35;1.33;;;19.50;99.90;;;;;;10396943;28;20209;-80
2022/08/08 06:28:52;;;;;;;3.47;1.73;;;19.60;1.00;;;;;;10396402;28;20201;-80
2022/08/08 06:34:17;;;;;;;2.72;1.70;;;19.80;1.00;;;;;;10400258;28;20421;-80
2022/08/08 06:39:44;;;;;;;2.58;1.40;;;20.00;1.00;;;;;;10422974;28;20235;-79
2022/08/08 06:45:06;;;;;;;2.47;1.30;;;20.30;99.90;;;;;;10422957;28;20209;-79
2022/08/08 06:50:31;;;;;;;6.03;1.40;;;21.40;99.90;;;;;;10408836;28;20495;-79
2022/08/08 06:55:56;;;;;;;2.88;1.42;;;22.00;1.00;;;;;;10446223;28;20271;-80
2022/08/08 07:01:18;;;;;;;3.05;1.55;;;22.10;99.90;;;;;;10477357;28;20231;-79
2022/08/08 07:06:49;;;;;;;3.28;1.50;;;22.30;99.90;;;;;;10463420;28;20509;-81
2022/08/08 07:12:19;;;;;;;3.28;1.50;;;22.20;99.90;;;;;;10454303;28;20197;-80
2022/08/08 07:17:49;;;;;;;3.08;1.33;;;22.30;1.00;;;;;;10410561;28;20252;-79
2022/08/08 07:23:23;;;;;;;6.20;1.67;;;22.40;1.00;;;;;;10394454;28;20201;-80
2022/08/08 07:28:48;;;;;;;4.60;1.45;;;22.40;1.00;;;;;;10396803;28;20239;-79
2022/08/08 07:34:11;;;;;;;2.83;1.30;;;22.30;1.00;;;;;;10425586;28;20236;-82
2022/08/08 07:39:35;;;;;;;3.83;1.70;;;22.30;1.00;;;;;;10473634;28;20239;-84
2022/08/08 07:44:58;;;;;;;4.47;1.30;;;22.10;1.00;;;;;;10457750;28;20271;-86
2022/08/08 07:50:20;;;;;;;4.97;1.35;;;21.90;1.00;;;;;;10425811;28;20240;-82
2022/08/08 07:55:43;;;;;;;5.07;1.55;;;21.90;1.00;;;;;;10430381;28;20204;-83
2022/08/08 08:01:06;;;;;;;2.47;1.48;;;21.90;1.00;;;;;;10429744;28;20282;-82
2022/08/08 08:06:32;;;;;;;3.53;1.60;;;21.90;1.00;;;;;;10432340;28;20192;-79
2022/08/08 08:11:55;;;;;;;3.78;1.80;;;21.80;1.00;;;;;;10430751;28;20219;-83
2022/08/08 08:17:26;;;;;;;11.60;2.85;;;22.00;1.00;;;;;;10437458;28;20445;-83
2022/08/08 08:22:48;;;;;;;5.38;1.35;;;22.90;1.00;;;;;;10422798;28;20220;-86
2022/08/08 08:28:10;;;;;;;2.42;1.33;;;23.80;1.00;;;;;;10409353;28;20488;-83
2022/08/08 08:33:32;;;;;;;3.17;1.40;;;23.90;1.00;;;;;;10422900;28;20209;-84
2022/08/08 08:38:56;;;;;;;2.22;1.15;;;24.10;1.00;;;;;;10450980;28;20262;-83
2022/08/08 08:44:28;;;;;;;1.38;1.20;;;24.10;1.00;;;;;;10424517;28;20258;-86
2022/08/08 08:49:49;;;;;;;2.58;1.20;;;24.00;99.90;;;;;;10435876;28;20184;-84
2022/08/08 08:55:14;;;;;;;2.30;1.38;;;24.20;99.90;;;;;;10422969;28;20199;-85
2022/08/08 09:00:37;;;;;;;4.13;1.50;;;24.30;99.90;;;;;;10435815;28;20244;-85
2022/08/08 09:06:12;;;;;;;2.85;1.70;;;24.50;99.90;;;;;;10410293;28;20280;-83
2022/08/08 09:11:34;;;;;;;2.58;1.40;;;25.70;99.90;;;;;;10429171;28;20201;-83
2022/08/08 09:16:56;;;;;;;1.95;1.33;;;27.20;95.50;;;;;;10410113;28;20253;-84
2022/08/08 09:22:21;;;;;;;2.58;1.70;;;28.20;83.80;;;;;;10410140;28;20208;-82
2022/08/08 09:27:44;;;;;;;5.03;2.45;;;28.90;1.00;;;;;;10420689;28;20200;-82
2022/08/08 09:33:09;;;;;;;3.10;1.77;;;29.50;1.00;;;;;;10404943;28;20224;-83
2022/08/08 09:38:51;;;;;;;1.77;1.40;;;29.00;1.00;;;;;;10407986;28;20263;-83
2022/08/08 09:44:25;;;;;;;3.55;2.08;;;29.00;1.00;;;;;;10432879;28;20188;-86
2022/08/08 09:49:48;;;;;;;6.15;2.53;;;29.30;1.00;;;;;;10433987;28;20212;-82
2022/08/08 09:55:10;;;;;;;2.78;1.50;;;27.90;1.00;;;;;;10434644;28;20692;-84
2022/08/08 10:00:35;;;;;;;2.72;1.50;;;26.80;1.00;;;;;;10417663;28;20223;-82
2022/08/08 10:05:58;;;;;;;4.45;1.70;;;26.10;1.00;;;;;;10465253;28;20292;-84
2022/08/08 10:11:22;;;;;;;5.47;1.45;;;25.30;1.00;;;;;;10417622;28;20447;-82
2022/08/08 10:16:43;;;;;;;5.88;2.42;;;24.90;1.00;;;;;;10412062;28;20196;-83
2022/08/08 10:22:06;;;;;;;18.75;11.20;;;24.60;1.00;;;;;;10420148;28;20268;-78
2022/08/08 10:27:29;;;;;;;19.15;9.88;;;24.70;1.00;;;;;;10430677;28;20483;-79
2022/08/08 10:32:56;;;;;;;13.63;7.55;;;24.70;1.00;;;;;;10394691;28;20211;-83
2022/08/08 10:38:19;;;;;;;4.03;2.83;;;24.60;1.00;;;;;;10391480;28;20299;-82
2022/08/08 10:43:41;;;;;;;2.40;2.03;;;24.50;1.00;;;;;;10418799;28;20213;-82
2022/08/08 10:49:03;;;;;;;3.22;1.90;;;24.40;1.00;;;;;;10439021;28;20208;-83
2022/08/08 10:54:24;;;;;;;2.85;1.73;;;24.10;1.00;;;;;;10386337;28;20197;-83
2022/08/08 10:59:57;;;;;;;4.15;1.80;;;23.80;1.00;;;;;;10446203;28;20224;-84
2022/08/08 11:05:18;;;;;;;4.13;2.10;;;23.70;1.00;;;;;;10417975;28;20487;-83
2022/08/08 11:10:40;;;;;;;10.25;2.90;;;23.70;1.00;;;;;;10401560;28;20201;-82
2022/08/08 11:16:01;;;;;;;2.47;1.80;;;23.70;1.00;;;;;;10413060;28;20212;-82
2022/08/08 11:21:24;;;;;;;8.50;1.90;;;23.60;1.00;;;;;;10414648;28;20294;-81
2022/08/08 11:26:46;;;;;;;4.45;3.08;;;23.60;1.00;;;;;;10415997;28;20188;-82
2022/08/08 11:32:08;;;;;;;4.15;2.15;;;23.60;1.00;;;;;;10429498;28;20499;-82
2022/08/08 11:37:30;;;;;;;5.40;3.58;;;23.60;1.00;;;;;;10416398;28;20426;-88
2022/08/08 11:42:54;;;;;;;5.65;3.25;;;23.70;1.00;;;;;;10415102;28;20255;-83
2022/08/08 11:48:15;;;;;;;5.82;2.30;;;23.90;1.00;;;;;;10430250;28;20275;-82
2022/08/08 11:53:37;;;;;;;4.47;2.00;;;24.70;1.00;;;;;;10388167;28;20204;-82
2022/08/08 11:59:09;;;;;;;2.92;1.98;;;25.00;1.00;;;;;;10392539;28;20232;-79
2022/08/08 12:04:31;;;;;;;3.00;1.77;;;25.00;1.00;;;;;;10404569;28;20272;-81
2022/08/08 12:09:55;;;;;;;2.17;1.40;;;24.90;1.00;;;;;;10393320;28;20211;-87
2022/08/08 12:15:35;;;;;;;2.45;1.30;;;24.80;1.00;;;;;;10373048;28;20216;-80
2022/08/08 12:20:56;;;;;;;3.33;1.98;;;25.00;1.00;;;;;;10402034;28;20232;-87
2022/08/08 12:26:22;;;;;;;2.42;1.73;;;24.80;1.00;;;;;;10430221;28;20216;-82
2022/08/08 12:31:45;;;;;;;6.30;2.00;;;24.70;1.00;;;;;;10445107;28;20204;-81
2022/08/08 12:37:18;;;;;;;1.92;1.52;;;24.70;1.00;;;;;;10415865;28;20512;-81
2022/08/08 12:42:44;;;;;;;1.95;1.85;;;24.60;1.00;;;;;;10415566;28;20204;-82
2022/08/08 12:48:20;;;;;;;4.07;1.90;;;24.50;1.00;;;;;;10413741;28;20205;-83
2022/08/08 12:54:00;;;;;;;3.00;1.90;;;24.20;1.00;;;;;;10417892;28;20511;-80
2022/08/08 12:59:27;;;;;;;1.73;1.50;;;24.10;1.00;;;;;;10435176;28;20220;-82
2022/08/08 13:04:50;;;;;;;8.52;2.00;;;24.00;1.00;;;;;;10407149;28;20201;-86
2022/08/08 13:10:16;;;;;;;2.55;1.65;;;23.90;1.00;;;;;;10408458;28;20208;-86
2022/08/08 13:15:37;;;;;;;2.88;1.70;;;24.00;1.00;;;;;;10407577;28;20266;-82
2022/08/08 13:20:59;;;;;;;5.40;2.30;;;24.20;1.00;;;;;;10421938;28;20236;-83
2022/08/08 13:26:21;;;;;;;3.22;1.95;;;24.40;1.00;;;;;;10452131;28;20223;-80
2022/08/08 13:31:51;;;;;;;2.38;1.88;;;24.50;1.00;;;;;;10434992;28;20228;-85
2022/08/08 13:37:14;;;;;;;2.53;2.10;;;24.60;1.00;;;;;;10412518;28;20201;-82
2022/08/08 13:42:36;;;;;;;2.80;1.90;;;24.40;1.00;;;;;;10422029;28;20212;-86
2022/08/08 13:48:02;;;;;;;4.53;2.20;;;24.20;1.00;;;;;;10405963;28;20205;-82
2022/08/08 13:53:31;;;;;;;3.88;2.67;;;23.80;1.00;;;;;;10420274;28;20203;-86
2022/08/08 13:58:52;;;;;;;5.63;2.08;;;23.60;1.00;;;;;;10406195;28;20271;-82
2022/08/08 14:04:21;;;;;;;5.22;2.13;;;23.50;1.00;;;;;;10418581;28;20205;-83
2022/08/08 14:09:44;;;;;;;5.75;2.17;;;23.30;1.00;;;;;;10420218;28;20204;-88
2022/08/08 14:15:10;;;;;;;4.25;2.00;;;23.10;1.00;;;;;;10413131;28;20209;-82
2022/08/08 14:20:40;;;;;;;2.60;2.00;;;23.10;1.00;;;;;;10405224;28;20259;-86
2022/08/08 14:26:01;;;;;;;3.45;2.05;;;23.00;1.00;;;;;;10405083;28;20192;-82
2022/08/08 14:31:25;;;;;;;4.38;1.90;;;23.10;1.00;;;;;;10430996;28;20188;-83
2022/08/08 14:36:49;;;;;;;3.20;1.77;;;23.10;1.00;;;;;;10378285;28;20245;-82
2022/08/08 14:42:11;;;;;;;4.07;2.20;;;23.00;1.00;;;;;;10394773;28;20232;-86
2022/08/08 14:47:49;;;;;;;3.28;2.10;;;23.10;1.00;;;;;;10381108;28;20201;-85
2022/08/08 14:53:12;;;;;;;2.65;1.80;;;23.00;1.00;;;;;;10417329;28;20203;-85
2022/08/08 14:58:34;;;;;;;2.42;2.22;;;22.90;1.00;;;;;;10417873;28;20549;-84
2022/08/08 15:03:56;;;;;;;2.03;1.83;;;22.80;1.00;;;;;;10418794;28;20396;-84
2022/08/08 15:09:18;;;;;;;2.58;1.90;;;22.80;1.00;;;;;;10407182;28;20452;-85
2022/08/08 15:14:39;;;;;;;3.08;2.25;;;22.90;1.00;;;;;;10401064;28;20289;-84
2022/08/08 15:20:01;;;;;;;3.90;2.70;;;22.90;1.00;;;;;;10408737;28;20232;-86
2022/08/08 15:25:22;;;;;;;3.42;2.38;;;23.20;1.00;;;;;;10422392;28;20204;-85
2022/08/08 15:30:43;;;;;;;4.00;1.90;;;23.50;1.00;;;;;;10421023;28;20192;-85
2022/08/08 15:36:05;;;;;;;2.70;1.88;;;23.60;1.00;;;;;;10404190;28;20267;-85
2022/08/08 15:41:28;;;;;;;7.50;2.55;;;23.30;1.00;;;;;;10433136;28;20239;-81
2022/08/08 15:46:50;;;;;;;3.88;2.10;;;23.20;1.00;;;;;;10420360;28;20192;-80
2022/08/08 15:52:13;;;;;;;6.95;2.35;;;22.90;1.00;;;;;;10421348;28;20530;-81
2022/08/08 15:57:34;;;;;;;4.82;2.65;;;22.80;1.00;;;;;;10420415;28;20375;-83
2022/08/08 16:02:56;;;;;;;8.60;2.85;;;22.80;1.00;;;;;;10421299;28;20200;-82
2022/08/08 16:08:18;;;;;;;5.13;2.20;;;22.60;1.00;;;;;;10421057;28;20188;-83
2022/08/08 16:13:39;;;;;;;3.95;2.22;;;22.50;1.00;;;;;;10392469;28;20391;-83
2022/08/08 16:19:00;;;;;;;2.72;2.35;;;22.40;99.90;;;;;;10396032;28;20241;-83
2022/08/08 16:24:22;;;;;;;3.95;2.80;;;22.30;20.00;;;;;;10393578;28;20488;-83
2022/08/08 16:29:44;;;;;;;14.35;6.43;;;22.00;31.90;;;;;;10440106;28;20197;-83
2022/08/08 16:35:05;;;;;;;7.60;5.70;;;21.90;51.30;;;;;;10428012;28;20220;-83
2022/08/08 16:40:27;;;;;;;6.07;3.90;;;21.80;75.50;;;;;;10427950;28;20220;-83
2022/08/08 16:45:48;;;;;;;8.90;5.97;;;21.80;94.20;;;;;;10413714;28;20189;-81
2022/08/08 16:51:10;;;;;;;6.82;4.13;;;21.80;99.90;;;;;;10441801;28;20192;-83
2022/08/08 16:56:32;;;;;;;8.40;3.92;;;21.60;99.90;;;;;;10427040;28;20304;-83
2022/08/08 17:01:53;;;;;;;6.07;4.00;;;21.60;99.90;;;;;;10427076;28;20266;-83
2022/08/08 17:07:14;;;;;;;5.80;3.88;;;21.50;99.90;;;;;;10426835;28;20198;-84
2022/08/08 17:12:36;;;;;;;4.82;3.97;;;21.40;99.90;;;;;;10419956;28;20283;-83
2022/08/08 17:17:57;;;;;;;6.32;4.07;;;21.20;99.90;;;;;;10439849;28;20235;-84
2022/08/08 17:23:19;;;;;;;7.22;3.13;;;21.10;99.90;;;;;;10426568;28;20563;-83
2022/08/08 17:28:40;;;;;;;9.77;2.78;;;21.00;99.90;;;;;;10443061;28;20203;-84
2022/08/08 17:34:01;;;;;;;5.80;2.78;;;21.00;1.00;;;;;;10426046;28;20208;-86
2022/08/08 17:39:23;;;;;;;7.80;3.40;;;20.90;1.00;;;;;;10425767;28;20224;-86
2022/08/08 17:44:44;;;;;;;4.75;2.92;;;20.90;1.00;;;;;;10399712;28;20376;-86
2022/08/08 17:50:08;;;;;;;6.30;3.00;;;20.80;1.00;;;;;;10399232;28;20201;-86
2022/08/08 17:55:29;;;;;;;8.63;3.00;;;20.80;1.00;;;;;;10413843;28;20380;-85
2022/08/08 18:00:51;;;;;;;5.75;3.83;;;20.60;1.00;;;;;;10439677;28;20220;-85
2022/08/08 18:06:12;;;;;;;7.05;4.18;;;20.60;24.30;;;;;;10455793;28;20196;-86
2022/08/08 18:11:40;;;;;;;5.07;3.85;;;20.50;99.90;;;;;;10424172;28;20211;-86
2022/08/08 18:17:01;;;;;;;9.90;4.28;;;20.50;1.00;;;;;;10397613;28;20247;-86
2022/08/08 18:22:23;;;;;;;8.13;4.40;;;20.30;1.00;;;;;;10370357;28;20232;-83
2022/08/08 18:27:45;;;;;;;5.78;3.80;;;20.30;30.60;;;;;;10399922;28;20192;-86
2022/08/08 18:33:06;;;;;;;10.63;3.90;;;20.20;99.90;;;;;;10424511;28;20192;-84
2022/08/08 18:38:27;;;;;;;7.32;4.55;;;20.00;1.00;;;;;;10437952;28;20222;-87
2022/08/08 18:43:49;;;;;;;6.55;4.15;;;19.90;64.20;;;;;;10423629;28;20266;-84
2022/08/08 18:49:10;;;;;;;6.20;3.42;;;19.90;99.90;;;;;;10409930;28;20242;-86
2022/08/08 18:54:33;;;;;;;4.97;3.05;;;19.80;99.90;;;;;;10423559;28;20206;-85
2022/08/08 18:59:55;;;;;;;4.28;3.08;;;19.70;99.90;;;;;;10423061;28;20236;-84
2022/08/08 19:05:17;;;;;;;5.72;3.15;;;19.60;99.90;;;;;;10453478;28;20269;-86
2022/08/08 19:10:38;;;;;;;5.30;3.80;;;19.70;99.90;;;;;;10408541;28;20200;-85
2022/08/08 19:16:00;;;;;;;5.60;3.75;;;19.70;1.00;;;;;;10409059;28;20201;-86
2022/08/08 19:21:25;;;;;;;4.25;2.88;;;19.70;1.00;;;;;;10381056;28;20547;-85
2022/08/08 19:26:46;;;;;;;4.63;3.25;;;19.70;1.00;;;;;;10395836;28;20196;-83
2022/08/08 19:32:08;;;;;;;5.70;3.33;;;19.70;99.90;;;;;;10413181;28;20196;-82
2022/08/08 19:37:29;;;;;;;7.63;3.70;;;19.60;1.00;;;;;;10436640;28;20193;-83
2022/08/08 19:42:51;;;;;;;7.60;3.85;;;19.50;1.00;;;;;;10422206;28;20584;-83
2022/08/08 19:48:12;;;;;;;3.42;3.13;;;19.60;99.90;;;;;;10421551;28;20196;-83
2022/08/08 19:53:34;;;;;;;6.28;3.67;;;19.50;1.00;;;;;;10435384;28;20200;-83
2022/08/08 19:58:56;;;;;;;3.63;2.92;;;19.50;13.80;;;;;;10422036;28;20273;-83
2022/08/08 20:04:17;;;;;;;6.40;2.90;;;19.40;99.90;;;;;;10457526;28;20292;-87
2022/08/08 20:09:39;;;;;;;6.57;3.90;;;19.30;1.00;;;;;;10415759;28;20231;-84
2022/08/08 20:15:00;;;;;;;6.90;4.65;;;19.20;1.00;;;;;;10429696;28;20201;-83
2022/08/08 20:20:23;;;;;;;7.47;4.68;;;19.10;99.90;;;;;;10415239;28;20244;-86
2022/08/08 20:25:45;;;;;;;4.95;4.00;;;19.00;99.90;;;;;;10443110;28;20196;-83
2022/08/08 20:31:06;;;;;;;4.65;3.85;;;19.00;1.00;;;;;;10428893;28;20212;-84
2022/08/08 20:36:28;;;;;;;4.85;4.18;;;19.00;95.70;;;;;;10442275;28;20219;-85
2022/08/08 20:41:49;;;;;;;7.40;4.43;;;18.90;99.90;;;;;;10442161;28;20545;-83
2022/08/08 20:47:10;;;;;;;4.40;3.70;;;18.90;1.00;;;;;;10428626;28;20188;-85
2022/08/08 20:52:32;;;;;;;4.80;3.85;;;18.80;1.00;;;;;;10428287;28;20188;-86
2022/08/08 20:57:55;;;;;;;5.15;3.70;;;18.80;1.00;;;;;;10427540;28;20192;-83
2022/08/08 21:03:16;;;;;;;5.25;4.05;;;18.80;1.00;;;;;;10429016;28;20268;-85
2022/08/08 21:08:41;;;;;;;6.65;4.30;;;18.70;99.90;;;;;;10415235;28;20200;-84
2022/08/08 21:14:02;;;;;;;5.85;3.88;;;18.60;99.90;;;;;;10423288;28;20197;-86
2022/08/08 21:19:26;;;;;;;4.03;3.00;;;18.50;1.00;;;;;;10427210;28;20237;-85
2022/08/08 21:24:47;;;;;;;6.55;3.90;;;18.50;1.00;;;;;;10427139;28;20196;-86
2022/08/08 21:30:10;;;;;;;4.50;3.50;;;18.50;1.00;;;;;;10441161;28;20215;-86
2022/08/08 21:35:33;;;;;;;6.55;4.10;;;18.40;1.00;;;;;;10399631;28;20480;-86
2022/08/08 21:40:55;;;;;;;5.85;4.60;;;18.40;1.00;;;;;;10385620;28;20233;-86
2022/08/08 21:46:17;;;;;;;5.75;4.05;;;18.20;1.00;;;;;;10398982;28;20205;-86
2022/08/08 21:51:40;;;;;;;5.82;4.22;;;18.20;8.10;;;;;;10426311;28;20258;-86
2022/08/08 21:57:01;;;;;;;4.75;3.63;;;18.20;23.30;;;;;;10412278;28;20390;-86
2022/08/08 22:02:23;;;;;;;4.60;3.83;;;18.20;81.20;;;;;;10439526;28;20295;-85
2022/08/08 22:07:47;;;;;;;5.68;3.70;;;18.30;44.10;;;;;;10439200;28;20247;-86
2022/08/08 22:13:09;;;;;;;7.30;3.78;;;18.30;25.50;;;;;;10438502;28;20205;-86
2022/08/08 22:18:32;;;;;;;5.65;3.80;;;18.30;19.10;;;;;;10410832;28;20243;-86
2022/08/08 22:23:53;;;;;;;7.70;4.22;;;18.30;32.30;;;;;;10438659;28;20246;-86
2022/08/08 22:29:15;;;;;;;7.30;4.75;;;18.30;58.30;;;;;;10397699;28;20197;-85
2022/08/08 22:34:36;;;;;;;6.38;4.50;;;18.40;67.40;;;;;;10406995;28;20201;-85
2022/08/08 22:39:58;;;;;;;8.68;5.03;;;18.40;99.90;;;;;;10424080;28;20239;-86
2022/08/08 22:45:19;;;;;;;6.93;5.25;;;18.30;99.90;;;;;;10410001;28;20196;-85
2022/08/08 22:50:41;;;;;;;6.40;4.70;;;18.20;99.90;;;;;;10410160;28;20219;-85
2022/08/08 22:56:03;;;;;;;6.05;4.15;;;18.10;99.90;;;;;;10409645;28;20199;-85
2022/08/08 23:01:24;;;;;;;4.68;4.00;;;18.20;99.90;;;;;;10437493;28;20220;-85
2022/08/08 23:06:46;;;;;;;5.93;4.00;;;18.20;99.90;;;;;;10438311;28;20199;-86
2022/08/08 23:12:07;;;;;;;4.25;3.80;;;18.20;99.90;;;;;;10418342;28;20288;-86
2022/08/08 23:17:28;;;;;;;5.25;3.92;;;18.20;99.90;;;;;;10398597;28;20528;-86
2022/08/08 23:22:50;;;;;;;5.07;3.40;;;18.20;99.90;;;;;;10368431;28;20229;-86
2022/08/08 23:28:11;;;;;;;4.45;3.20;;;18.20;99.90;;;;;;10395923;28;20370;-86
2022/08/08 23:33:33;;;;;;;4.10;3.63;;;18.20;99.90;;;;;;10393486;28;20279;-86
2022/08/08 23:38:54;;;;;;;5.20;3.88;;;18.20;99.90;;;;;;10421876;28;20232;-86
2022/08/08 23:44:17;;;;;;;4.68;3.67;;;18.10;99.90;;;;;;10421454;28;20215;-86
2022/08/08 23:49:38;;;;;;;4.00;3.60;;;18.10;99.90;;;;;;10381502;28;20208;-86
2022/08/08 23:55:00;;;;;;;4.82;3.47;;;18.10;99.90;;;;;;10398700;28;20212;-82
